createdAt,value
2018-03-25T00:00:12.556Z,96.87
2018-03-25T00:02:40.129Z,97.19
2018-03-25T00:05:07.735Z,97.57
2018-03-25T00:07:35.305Z,97.69
2018-03-25T00:10:02.867Z,98.07
2018-03-25T00:12:30.479Z,98.27
2018-03-25T00:14:58.057Z,98.50
2018-03-25T00:17:25.621Z,98.27
2018-03-25T00:19:53.213Z,98.40
2018-03-25T00:22:20.777Z,97.87
2018-03-25T00:24:48.341Z,97.50
2018-03-25T00:27:15.932Z,97.48
2018-03-25T00:29:43.502Z,96.86
2018-03-25T00:32:11.071Z,96.16
2018-03-25T00:34:38.775Z,96.05
2018-03-25T00:37:06.346Z,96.17
2018-03-25T00:39:33.914Z,96.05
2018-03-25T00:42:01.586Z,95.86
2018-03-25T00:44:29.158Z,95.27
2018-03-25T00:46:56.746Z,95.18
2018-03-25T00:49:24.342Z,94.96
2018-03-25T00:51:51.912Z,95.17
2018-03-25T00:54:19.479Z,95.29
2018-03-25T00:56:47.068Z,95.39
2018-03-25T00:59:14.670Z,95.34
2018-03-25T01:01:42.236Z,94.75
2018-03-25T01:04:09.875Z,94.46
2018-03-25T01:06:37.441Z,94.16
2018-03-25T01:09:05.053Z,94.65
2018-03-25T01:11:32.673Z,94.92
2018-03-25T01:14:00.245Z,94.28
2018-03-25T01:16:27.820Z,93.17
2018-03-25T01:18:55.422Z,93.09
2018-03-25T01:21:23.006Z,92.99
2018-03-25T01:23:50.593Z,93.01
2018-03-25T01:26:18.210Z,92.73
2018-03-25T01:28:45.795Z,92.86
2018-03-25T01:31:13.374Z,92.89
2018-03-25T01:33:41.003Z,93.25
2018-03-25T01:36:08.585Z,93.37
2018-03-25T01:38:36.163Z,93.02
2018-03-25T01:41:03.774Z,93.22
2018-03-25T01:43:31.360Z,92.92
2018-03-25T01:45:58.937Z,92.89
2018-03-25T01:48:26.561Z,92.86
2018-03-25T01:50:54.137Z,92.59
2018-03-25T01:53:21.719Z,91.80
2018-03-25T01:55:49.374Z,91.16
2018-03-25T01:58:16.958Z,91.07
2018-03-25T02:00:44.550Z,91.35
2018-03-25T02:03:12.170Z,91.17
2018-03-25T02:05:39.746Z,90.75
2018-03-25T02:08:07.321Z,89.94
2018-03-25T02:10:34.929Z,89.59
2018-03-25T02:13:02.514Z,89.53
2018-03-25T02:15:30.096Z,89.81
2018-03-25T02:17:57.749Z,89.84
2018-03-25T02:20:25.335Z,89.86
2018-03-25T02:22:52.905Z,89.96
2018-03-25T02:25:20.510Z,90.30
2018-03-25T02:27:48.092Z,90.87
2018-03-25T02:30:15.671Z,91.02
2018-03-25T02:32:43.316Z,91.05
2018-03-25T02:35:10.898Z,90.78
2018-03-25T02:37:38.484Z,90.77
2018-03-25T02:40:06.105Z,91.06
2018-03-25T02:42:33.678Z,91.60
2018-03-25T02:45:01.255Z,91.96
2018-03-25T02:47:28.881Z,91.73
2018-03-25T02:49:56.504Z,91.33
2018-03-25T02:52:24.089Z,91.31
2018-03-25T02:54:51.713Z,90.61
2018-03-25T02:57:19.322Z,90.58
2018-03-25T02:59:46.919Z,90.71
2018-03-25T03:02:14.582Z,90.81
2018-03-25T03:04:42.174Z,90.36
2018-03-25T03:07:09.761Z,90.21
2018-03-25T03:09:37.373Z,90.33
2018-03-25T03:12:04.966Z,90.74
2018-03-25T03:14:32.556Z,90.94
2018-03-25T03:17:00.171Z,90.78
2018-03-25T03:19:27.766Z,90.49
2018-03-25T03:21:55.345Z,90.51
2018-03-25T03:24:22.970Z,90.67
2018-03-25T03:26:50.562Z,90.65
2018-03-25T03:29:18.148Z,90.66
2018-03-25T03:31:45.779Z,90.90
2018-03-25T03:34:13.365Z,91.08
2018-03-25T03:36:41.005Z,90.85
2018-03-25T03:39:08.755Z,91.43
2018-03-25T03:41:36.329Z,91.31
2018-03-25T03:44:03.935Z,90.89
2018-03-25T03:46:31.595Z,90.88
2018-03-25T03:48:59.195Z,90.86
2018-03-25T03:51:26.787Z,91.03
2018-03-25T03:53:54.407Z,91.18
2018-03-25T03:56:22.164Z,90.92
2018-03-25T03:58:49.748Z,91.35
2018-03-25T04:01:17.354Z,91.64
2018-03-25T04:03:44.935Z,91.39
2018-03-25T04:06:12.512Z,91.14
2018-03-25T04:08:40.135Z,90.75
2018-03-25T04:11:07.714Z,91.03
2018-03-25T04:13:35.311Z,91.05
2018-03-25T04:16:02.937Z,90.96
2018-03-25T04:18:30.524Z,90.65
2018-03-25T04:20:58.109Z,90.18
2018-03-25T04:23:25.733Z,90.40
2018-03-25T04:25:53.331Z,90.36
2018-03-25T04:28:20.925Z,90.58
2018-03-25T04:30:48.564Z,90.37
2018-03-25T04:33:16.153Z,90.07
2018-03-25T04:35:43.745Z,89.89
2018-03-25T04:38:11.362Z,89.70
2018-03-25T04:40:38.947Z,90.14
2018-03-25T04:43:06.531Z,89.82
2018-03-25T04:45:34.394Z,89.74
2018-03-25T04:48:01.966Z,89.78
2018-03-25T04:50:29.664Z,89.68
2018-03-25T04:52:57.314Z,88.79
2018-03-25T04:55:24.910Z,88.23
2018-03-25T04:57:52.497Z,87.91
2018-03-25T05:00:20.117Z,86.80
2018-03-25T05:02:47.707Z,85.46
2018-03-25T05:05:15.294Z,85.09
2018-03-25T05:07:42.918Z,85.07
2018-03-25T05:10:10.523Z,85.68
2018-03-25T05:12:38.104Z,85.36
2018-03-25T05:15:05.722Z,85.33
2018-03-25T05:17:33.306Z,85.66
2018-03-25T05:20:00.886Z,85.27
2018-03-25T05:22:28.513Z,85.20
2018-03-25T05:24:56.095Z,84.83
2018-03-25T05:27:23.679Z,84.19
2018-03-25T05:29:51.296Z,83.93
2018-03-25T05:32:18.879Z,83.74
2018-03-25T05:34:46.495Z,83.92
2018-03-25T05:37:14.119Z,82.60
2018-03-25T05:39:41.778Z,82.96
2018-03-25T05:42:09.995Z,82.33
2018-03-25T05:44:37.614Z,82.47
2018-03-25T05:47:05.196Z,83.49
2018-03-25T05:49:32.786Z,82.90
2018-03-25T05:52:00.403Z,82.43
2018-03-25T05:54:27.985Z,81.98
2018-03-25T05:56:55.574Z,81.67
2018-03-25T05:59:23.196Z,82.17
2018-03-25T06:01:50.778Z,81.98
2018-03-25T06:04:18.363Z,81.55
2018-03-25T06:06:45.999Z,81.26
2018-03-25T06:09:13.579Z,81.18
2018-03-25T06:11:41.156Z,80.48
2018-03-25T06:14:08.772Z,80.13
2018-03-25T06:16:36.353Z,79.69
2018-03-25T06:19:03.925Z,79.57
2018-03-25T06:21:31.554Z,78.58
2018-03-25T06:23:59.121Z,77.93
2018-03-25T06:26:26.741Z,77.32
2018-03-25T06:28:54.330Z,76.40
2018-03-25T06:31:21.925Z,75.26
2018-03-25T06:33:49.515Z,74.96
2018-03-25T06:36:17.128Z,75.27
2018-03-25T06:38:44.713Z,73.89
2018-03-25T06:41:12.295Z,73.45
2018-03-25T06:43:39.902Z,72.35
2018-03-25T06:46:07.533Z,71.07
2018-03-25T06:48:35.135Z,70.20
2018-03-25T06:51:02.777Z,69.42
2018-03-25T06:53:30.367Z,68.19
2018-03-25T06:55:57.957Z,66.24
2018-03-25T06:58:25.563Z,64.48
2018-03-25T07:00:53.150Z,64.57
2018-03-25T07:03:20.738Z,66.56
2018-03-25T07:05:48.352Z,66.92
2018-03-25T07:08:15.937Z,66.14
2018-03-25T07:10:43.617Z,66.47
2018-03-25T07:13:11.267Z,67.12
2018-03-25T07:15:38.836Z,66.60
2018-03-25T07:18:06.411Z,67.83
2018-03-25T07:20:34.023Z,65.69
2018-03-25T07:23:01.585Z,63.67
2018-03-25T07:25:29.234Z,65.51
2018-03-25T07:27:56.866Z,62.83
2018-03-25T07:30:24.443Z,60.94
2018-03-25T07:32:52.040Z,60.29
2018-03-25T07:35:19.639Z,61.02
2018-03-25T07:37:47.214Z,61.76
2018-03-25T07:40:14.790Z,60.47
2018-03-25T07:42:42.406Z,58.48
2018-03-25T07:45:09.980Z,55.13
2018-03-25T07:47:37.562Z,50.71
2018-03-25T07:50:05.246Z,46.59
2018-03-25T07:52:32.835Z,48.34
2018-03-25T07:55:00.413Z,48.97
2018-03-25T07:57:28.017Z,50.09
2018-03-25T07:59:55.614Z,51.30
2018-03-25T08:02:23.234Z,53.11
2018-03-25T08:04:50.846Z,53.77
2018-03-25T08:07:18.502Z,52.98
2018-03-25T08:09:46.101Z,52.51
2018-03-25T08:12:13.714Z,49.93
2018-03-25T08:14:41.295Z,50.23
2018-03-25T08:17:08.865Z,47.75
2018-03-25T08:19:36.467Z,46.41
2018-03-25T08:22:04.200Z,47.93
2018-03-25T08:24:31.886Z,45.01
2018-03-25T08:26:59.667Z,44.04
2018-03-25T08:29:27.244Z,40.20
2018-03-25T08:31:54.824Z,38.13
2018-03-25T08:34:22.484Z,39.16
2018-03-25T08:36:50.070Z,41.32
2018-03-25T08:39:17.639Z,41.79
2018-03-25T08:41:45.241Z,42.91
2018-03-25T08:44:12.837Z,40.50
2018-03-25T08:46:40.418Z,38.41
2018-03-25T08:49:08.030Z,38.50
2018-03-25T08:51:35.604Z,41.79
2018-03-25T08:54:03.321Z,41.30
2018-03-25T08:56:31.007Z,41.43
2018-03-25T08:58:58.648Z,44.18
2018-03-25T09:01:26.283Z,42.06
2018-03-25T09:03:53.972Z,44.25
2018-03-25T09:06:21.714Z,44.96
2018-03-25T09:08:49.302Z,43.82
2018-03-25T09:11:16.976Z,42.12
2018-03-25T09:13:44.883Z,42.84
2018-03-25T09:16:13.101Z,39.40
2018-03-25T09:18:40.940Z,37.70
2018-03-25T09:21:08.519Z,36.79
2018-03-25T09:23:36.105Z,37.31
2018-03-25T09:26:03.723Z,35.18
2018-03-25T09:28:31.307Z,34.55
2018-03-25T09:30:58.877Z,34.38
2018-03-25T09:33:26.476Z,34.17
2018-03-25T09:35:54.045Z,36.27
2018-03-25T09:38:21.618Z,39.04
2018-03-25T09:40:49.224Z,37.62
2018-03-25T09:43:16.796Z,38.61
2018-03-25T09:45:44.437Z,39.45
2018-03-25T09:48:12.066Z,40.72
2018-03-25T09:50:39.663Z,39.01
2018-03-25T09:53:07.226Z,40.16
2018-03-25T09:55:34.846Z,36.26
2018-03-25T09:58:02.504Z,36.39
2018-03-25T10:00:30.130Z,35.16
2018-03-25T10:02:59.738Z,36.27
2018-03-25T10:05:27.330Z,37.03
2018-03-25T10:07:54.952Z,39.17
2018-03-25T10:10:22.593Z,38.69
2018-03-25T10:12:50.179Z,40.38
2018-03-25T10:15:17.758Z,41.95
2018-03-25T10:17:45.370Z,42.69
2018-03-25T10:20:12.962Z,46.43
2018-03-25T10:22:40.554Z,46.06
2018-03-25T10:25:09.021Z,48.03
2018-03-25T10:27:36.626Z,46.39
2018-03-25T10:30:04.253Z,49.34
2018-03-25T10:32:31.874Z,47.12
2018-03-25T10:34:59.446Z,47.43
2018-03-25T10:37:27.029Z,50.68
2018-03-25T10:39:54.640Z,48.57
2018-03-25T10:42:22.255Z,46.61
2018-03-25T10:44:49.831Z,48.08
2018-03-25T10:47:17.495Z,46.27
2018-03-25T10:49:45.098Z,46.56
2018-03-25T10:52:12.671Z,45.60
2018-03-25T10:54:40.290Z,40.63
2018-03-25T10:57:07.901Z,37.93
2018-03-25T10:59:35.473Z,36.60
2018-03-25T11:02:03.082Z,37.15
2018-03-25T11:04:30.662Z,37.53
2018-03-25T11:06:58.331Z,35.46
2018-03-25T11:09:26.034Z,35.39
2018-03-25T11:11:53.622Z,36.70
2018-03-25T11:14:21.275Z,36.22
2018-03-25T11:16:48.897Z,37.76
2018-03-25T11:19:16.495Z,40.28
2018-03-25T11:21:44.226Z,37.67
2018-03-25T11:24:11.875Z,39.06
2018-03-25T11:26:39.459Z,40.20
2018-03-25T11:29:07.209Z,41.01
2018-03-25T11:31:34.895Z,44.30
2018-03-25T11:34:02.473Z,42.59
2018-03-25T11:36:30.055Z,46.54
2018-03-25T11:38:57.662Z,45.46
2018-03-25T11:41:25.229Z,44.75
2018-03-25T11:43:52.836Z,43.84
2018-03-25T11:46:20.477Z,43.99
2018-03-25T11:48:48.102Z,47.07
2018-03-25T11:51:15.694Z,47.68
2018-03-25T11:53:43.319Z,48.97
2018-03-25T11:56:10.905Z,48.89
2018-03-25T11:58:38.495Z,49.95
2018-03-25T12:01:06.117Z,49.45
2018-03-25T12:03:33.695Z,50.16
2018-03-25T12:06:01.274Z,52.05
2018-03-25T12:08:28.873Z,50.00
2018-03-25T12:10:56.461Z,48.65
2018-03-25T12:13:24.047Z,49.26
2018-03-25T12:15:51.664Z,50.29
2018-03-25T12:18:19.236Z,50.86
2018-03-25T12:20:46.843Z,50.99
2018-03-25T12:23:14.468Z,49.73
2018-03-25T12:25:42.042Z,50.76
2018-03-25T12:28:09.622Z,50.70
2018-03-25T12:30:37.278Z,48.49
2018-03-25T12:33:04.846Z,44.77
2018-03-25T12:35:32.440Z,40.15
2018-03-25T12:38:00.075Z,37.94
2018-03-25T12:40:27.642Z,35.96
2018-03-25T12:42:55.219Z,37.89
2018-03-25T12:45:22.835Z,43.70
2018-03-25T12:47:50.412Z,45.12
2018-03-25T12:50:17.997Z,45.48
2018-03-25T12:52:45.599Z,45.25
2018-03-25T12:55:13.298Z,44.37
2018-03-25T12:57:40.879Z,42.49
2018-03-25T13:00:08.484Z,40.03
2018-03-25T13:02:36.069Z,38.41
2018-03-25T13:07:36.389Z,41.93
2018-03-25T13:10:04.020Z,39.47
2018-03-25T13:12:31.596Z,39.93
2018-03-25T13:14:59.205Z,38.33
2018-03-25T13:17:26.772Z,37.98
2018-03-25T13:19:54.342Z,43.17
2018-03-25T13:22:21.959Z,46.96
2018-03-25T13:24:49.566Z,49.08
2018-03-25T13:27:17.138Z,50.74
2018-03-25T13:29:44.825Z,54.03
2018-03-25T13:32:12.393Z,55.86
2018-03-25T13:34:40.001Z,56.86
2018-03-25T13:37:07.617Z,56.20
2018-03-25T13:39:35.195Z,57.20
2018-03-25T13:42:02.809Z,59.11
2018-03-25T13:44:30.408Z,58.07
2018-03-25T13:46:57.975Z,59.35
2018-03-25T13:49:25.572Z,59.84
2018-03-25T13:51:53.173Z,59.29
2018-03-25T13:54:20.751Z,60.12
2018-03-25T13:56:48.318Z,60.61
2018-03-25T13:59:15.921Z,60.88
2018-03-25T14:01:43.500Z,61.26
2018-03-25T14:04:11.072Z,61.58
2018-03-25T14:06:39.558Z,62.68
2018-03-25T14:09:07.154Z,64.31
2018-03-25T14:11:34.736Z,63.97
2018-03-25T14:14:02.698Z,63.25
2018-03-25T14:16:30.274Z,60.50
2018-03-25T14:18:57.840Z,61.97
2018-03-25T14:21:25.435Z,64.54
2018-03-25T14:23:53.014Z,65.59
2018-03-25T14:26:20.581Z,65.77
2018-03-25T14:28:48.173Z,66.11
2018-03-25T14:31:15.753Z,65.36
2018-03-25T14:33:43.327Z,67.35
2018-03-25T14:36:10.941Z,65.99
2018-03-25T14:38:38.514Z,66.56
2018-03-25T14:41:06.092Z,66.26
2018-03-25T14:43:33.693Z,65.59
2018-03-25T14:46:01.257Z,66.38
2018-03-25T14:48:28.829Z,66.01
2018-03-25T14:50:56.437Z,65.95
2018-03-25T14:53:24.140Z,66.03
2018-03-25T14:55:51.720Z,66.00
2018-03-25T14:58:19.373Z,66.58
2018-03-25T15:00:46.962Z,66.33
2018-03-25T15:03:14.524Z,67.50
2018-03-25T15:05:42.217Z,67.09
2018-03-25T15:08:09.782Z,67.24
2018-03-25T15:10:37.364Z,68.42
2018-03-25T15:13:05.224Z,68.05
2018-03-25T15:15:32.811Z,67.63
2018-03-25T15:18:00.398Z,69.50
2018-03-25T15:20:28.061Z,70.47
2018-03-25T15:22:55.770Z,69.79
2018-03-25T15:25:23.509Z,70.64
2018-03-25T15:27:51.289Z,70.59
2018-03-25T15:30:18.854Z,71.11
2018-03-25T15:32:46.478Z,70.35
2018-03-25T15:35:14.089Z,69.84
2018-03-25T15:37:41.670Z,70.14
2018-03-25T15:40:09.242Z,70.10
2018-03-25T15:42:36.866Z,69.68
2018-03-25T15:45:04.461Z,70.06
2018-03-25T15:47:32.035Z,70.43
2018-03-25T15:49:59.659Z,70.29
2018-03-25T15:52:27.224Z,71.19
2018-03-25T15:54:54.803Z,71.77
2018-03-25T15:57:22.430Z,72.95
2018-03-25T15:59:50.005Z,73.43
2018-03-25T16:02:18.042Z,73.92
2018-03-25T16:04:45.653Z,74.69
2018-03-25T16:07:13.243Z,75.52
2018-03-25T16:09:40.836Z,75.71
2018-03-25T16:12:08.463Z,76.01
2018-03-25T16:14:36.145Z,76.11
2018-03-25T16:17:03.725Z,76.70
2018-03-25T16:19:31.325Z,76.07
2018-03-25T16:21:58.914Z,74.01
2018-03-25T16:24:26.491Z,73.13
2018-03-25T16:26:54.112Z,72.77
2018-03-25T16:29:21.705Z,72.48
2018-03-25T16:31:49.314Z,71.81
2018-03-25T16:34:16.916Z,71.19
2018-03-25T16:36:44.499Z,71.53
2018-03-25T16:39:12.076Z,71.73
2018-03-25T16:41:39.688Z,71.46
2018-03-25T16:44:07.267Z,71.97
2018-03-25T16:46:34.858Z,72.52
2018-03-25T16:49:02.460Z,71.96
2018-03-25T16:51:30.048Z,72.28
2018-03-25T16:53:57.613Z,72.12
2018-03-25T16:56:25.235Z,72.58
2018-03-25T16:58:52.802Z,73.59
2018-03-25T17:01:20.369Z,73.28
2018-03-25T17:03:48.013Z,73.12
2018-03-25T17:06:15.583Z,73.17
2018-03-25T17:08:43.175Z,73.18
2018-03-25T17:11:10.807Z,73.01
2018-03-25T17:13:38.372Z,72.79
2018-03-25T17:16:06.753Z,72.80
2018-03-25T17:18:34.456Z,73.04
2018-03-25T17:21:02.052Z,73.45
2018-03-25T17:23:29.659Z,73.33
2018-03-25T17:25:57.261Z,73.33
2018-03-25T17:28:24.871Z,73.37
2018-03-25T17:30:52.446Z,73.66
2018-03-25T17:33:20.170Z,74.04
2018-03-25T17:35:47.744Z,74.02
2018-03-25T17:38:15.321Z,74.24
2018-03-25T17:40:42.965Z,74.33
2018-03-25T17:43:10.538Z,74.69
2018-03-25T17:45:38.114Z,74.83
2018-03-25T17:48:05.734Z,75.39
2018-03-25T17:50:33.314Z,75.60
2018-03-25T17:53:00.889Z,74.85
2018-03-25T17:55:29.082Z,75.22
2018-03-25T17:57:56.657Z,75.91
2018-03-25T18:00:24.337Z,76.93
2018-03-25T18:02:51.948Z,77.92
2018-03-25T18:05:19.523Z,77.46
2018-03-25T18:07:47.093Z,77.23
2018-03-25T18:10:14.699Z,77.25
2018-03-25T18:12:42.280Z,77.91
2018-03-25T18:15:09.851Z,79.10
2018-03-25T18:17:37.455Z,79.67
2018-03-25T18:20:05.021Z,80.61
2018-03-25T18:22:32.681Z,81.10
2018-03-25T18:25:00.279Z,81.85
2018-03-25T18:27:27.898Z,81.48
2018-03-25T18:29:55.490Z,81.12
2018-03-25T18:32:23.089Z,79.92
2018-03-25T18:34:50.655Z,78.72
2018-03-25T18:37:18.238Z,77.64
2018-03-25T18:39:45.890Z,76.76
2018-03-25T18:42:13.485Z,78.07
2018-03-25T18:44:41.076Z,79.25
2018-03-25T18:47:08.686Z,81.15
2018-03-25T18:49:36.259Z,82.05
2018-03-25T18:52:03.870Z,82.27
2018-03-25T18:54:31.478Z,81.56
2018-03-25T18:56:59.064Z,81.76
2018-03-25T18:59:26.646Z,81.85
2018-03-25T19:01:54.256Z,81.54
2018-03-25T19:04:21.875Z,81.06
2018-03-25T19:06:49.463Z,81.19
2018-03-25T19:09:17.107Z,80.63
2018-03-25T19:11:44.693Z,80.93
2018-03-25T19:14:12.335Z,80.92
2018-03-25T19:16:39.942Z,81.29
2018-03-25T19:19:07.519Z,81.35
2018-03-25T19:21:35.098Z,81.47
2018-03-25T19:24:02.737Z,81.44
2018-03-25T19:26:30.361Z,81.71
2018-03-25T19:28:57.973Z,81.89
2018-03-25T19:31:25.744Z,81.52
2018-03-25T19:33:53.327Z,81.56
2018-03-25T19:36:20.903Z,81.34
2018-03-25T19:38:49.200Z,81.52
2018-03-25T19:41:18.359Z,81.81
2018-03-25T19:43:46.115Z,82.12
2018-03-25T19:46:13.853Z,81.59
2018-03-25T19:48:41.426Z,81.23
2018-03-25T19:51:09.124Z,81.60
2018-03-25T19:53:36.736Z,81.85
2018-03-25T19:56:04.318Z,81.71
2018-03-25T19:58:31.888Z,82.13
2018-03-25T20:00:59.529Z,82.15
2018-03-25T20:03:27.114Z,81.50
2018-03-25T20:05:54.701Z,83.04
2018-03-25T20:08:22.378Z,81.95
2018-03-25T20:10:49.993Z,82.36
2018-03-25T20:13:17.584Z,82.76
2018-03-25T20:15:45.204Z,82.99
2018-03-25T20:18:12.785Z,83.68
2018-03-25T20:20:40.363Z,84.31
2018-03-25T20:23:08.020Z,84.84
2018-03-25T20:25:35.598Z,85.23
2018-03-25T20:28:03.224Z,84.53
2018-03-25T20:30:30.845Z,84.74
2018-03-25T20:32:58.426Z,85.16
2018-03-25T20:35:26.038Z,85.45
2018-03-25T20:37:53.650Z,85.93
2018-03-25T20:40:21.236Z,85.82
2018-03-25T20:42:48.900Z,85.40
2018-03-25T20:45:16.501Z,85.78
2018-03-25T20:47:44.090Z,86.57
2018-03-25T20:50:11.671Z,86.92
2018-03-25T20:52:39.294Z,86.68
2018-03-25T20:55:06.918Z,85.57
2018-03-25T20:57:34.479Z,85.60
2018-03-25T21:00:02.102Z,85.22
2018-03-25T21:02:29.684Z,84.82
2018-03-25T21:04:57.266Z,83.21
2018-03-25T21:07:24.870Z,82.01
2018-03-25T21:09:52.443Z,81.58
2018-03-25T21:12:20.023Z,81.64
2018-03-25T21:14:47.663Z,81.79
2018-03-25T21:17:15.268Z,81.68
2018-03-25T21:19:42.844Z,81.78
2018-03-25T21:22:10.492Z,81.52
2018-03-25T21:24:38.434Z,81.71
2018-03-25T21:27:06.065Z,81.86
2018-03-25T21:29:33.715Z,81.71
2018-03-25T21:32:01.323Z,82.38
2018-03-25T21:34:28.899Z,83.10
2018-03-25T21:36:56.518Z,81.80
2018-03-25T21:39:24.128Z,82.03
2018-03-25T21:41:51.737Z,82.27
2018-03-25T21:44:19.371Z,82.49
2018-03-25T21:46:46.941Z,83.64
2018-03-25T21:49:14.525Z,84.12
2018-03-25T21:51:42.203Z,83.74
2018-03-25T21:54:09.888Z,83.38
2018-03-25T21:56:37.510Z,83.97
2018-03-25T21:59:05.135Z,84.50
2018-03-25T22:01:32.736Z,84.60
2018-03-25T22:04:00.310Z,84.42
2018-03-25T22:06:27.930Z,84.16
2018-03-25T22:08:55.516Z,84.29
2018-03-25T22:11:23.099Z,83.91
2018-03-25T22:13:50.718Z,84.01
2018-03-25T22:16:18.305Z,84.50
2018-03-25T22:19:03.784Z,84.55
2018-03-25T22:21:31.383Z,84.97
2018-03-25T22:23:58.962Z,84.26
2018-03-25T22:26:26.634Z,85.03
2018-03-25T22:28:54.206Z,84.97
2018-03-25T22:31:21.790Z,86.41
2018-03-25T22:33:49.415Z,86.74
2018-03-25T22:36:16.997Z,87.21
2018-03-25T22:38:44.573Z,88.17
2018-03-25T22:41:12.188Z,88.59
2018-03-25T22:43:39.770Z,88.55
2018-03-25T22:46:08.193Z,88.62
2018-03-25T22:48:37.092Z,88.63
2018-03-25T22:51:04.822Z,88.32
2018-03-25T22:53:32.383Z,88.27
2018-03-25T22:55:59.997Z,87.96
2018-03-25T22:58:27.575Z,87.68
2018-03-25T23:00:55.159Z,87.47
2018-03-25T23:03:22.783Z,86.91
2018-03-25T23:05:50.366Z,86.82
2018-03-25T23:08:17.942Z,86.70
2018-03-25T23:10:45.555Z,86.30
2018-03-25T23:13:13.179Z,86.14
2018-03-25T23:15:40.761Z,86.35
2018-03-25T23:18:08.407Z,86.37
2018-03-25T23:20:35.999Z,85.97
2018-03-25T23:23:03.586Z,85.98
2018-03-25T23:25:31.200Z,85.65
2018-03-25T23:27:58.797Z,85.76
2018-03-25T23:30:26.387Z,85.84
2018-03-25T23:32:54.002Z,85.95
2018-03-25T23:35:21.578Z,85.96
2018-03-25T23:37:49.148Z,86.88
2018-03-25T23:40:16.763Z,87.38
2018-03-25T23:42:44.330Z,88.03
2018-03-25T23:45:11.952Z,88.05
2018-03-25T23:47:39.553Z,88.10
2018-03-25T23:50:07.130Z,88.39
2018-03-25T23:52:34.710Z,88.41
2018-03-25T23:55:02.334Z,88.27
2018-03-25T23:57:29.907Z,88.55
2018-03-25T23:59:57.481Z,88.28
